createdAt,value
2022-07-28T00:00:50.211Z,16.2
2022-07-28T00:02:50.555Z,16.2
2022-07-28T00:04:50.023Z,16.2
2022-07-28T00:06:50.203Z,16.2
2022-07-28T00:08:50.182Z,16.1
2022-07-28T00:10:50.027Z,16.1
2022-07-28T00:12:50.041Z,16.0
2022-07-28T00:14:50.028Z,16.0
2022-07-28T00:16:50.683Z,16.0
2022-07-28T00:18:50.719Z,16.0
2022-07-28T00:20:50.656Z,16.0
2022-07-28T00:22:50.696Z,15.9
2022-07-28T00:24:51.136Z,15.9
2022-07-28T00:26:50.226Z,15.9
2022-07-28T00:28:50.414Z,15.8
2022-07-28T00:30:50.507Z,15.8
2022-07-28T00:32:50.788Z,15.8
2022-07-28T00:34:54.684Z,15.8
2022-07-28T00:36:50.359Z,15.8
2022-07-28T00:38:53.381Z,15.8
2022-07-28T00:40:50.476Z,15.7
2022-07-28T00:42:52.606Z,15.7
2022-07-28T00:44:50.371Z,15.7
2022-07-28T00:46:51.112Z,15.6
2022-07-28T00:48:50.530Z,15.6
2022-07-28T00:50:50.425Z,15.6
2022-07-28T00:52:50.269Z,15.6
2022-07-28T00:54:50.275Z,15.6
2022-07-28T00:56:50.548Z,15.5
2022-07-28T00:58:50.556Z,15.5
2022-07-28T01:00:50.654Z,15.5
2022-07-28T01:02:51.254Z,15.5
2022-07-28T01:04:50.878Z,15.5
2022-07-28T01:06:49.984Z,15.5
2022-07-28T01:08:50.860Z,15.5
2022-07-28T01:10:51.188Z,15.5
2022-07-28T01:12:50.878Z,15.4
2022-07-28T01:14:50.895Z,15.4
2022-07-28T01:16:50.058Z,15.4
2022-07-28T01:18:50.896Z,15.4
2022-07-28T01:20:50.907Z,15.4
2022-07-28T01:22:50.750Z,15.4
2022-07-28T01:24:50.690Z,15.4
2022-07-28T01:26:50.936Z,15.4
2022-07-28T01:28:50.808Z,15.4
2022-07-28T01:30:50.966Z,15.4
2022-07-28T01:32:50.030Z,15.3
2022-07-28T01:34:50.313Z,15.3
2022-07-28T01:36:50.398Z,15.3
2022-07-28T01:38:50.294Z,15.3
2022-07-28T01:40:50.925Z,15.2
2022-07-28T01:42:50.855Z,15.2
2022-07-28T01:44:50.077Z,15.2
2022-07-28T01:46:50.637Z,15.2
2022-07-28T01:48:51.223Z,15.2
2022-07-28T01:50:50.372Z,15.1
2022-07-28T01:52:50.532Z,15.1
2022-07-28T01:54:50.596Z,15.1
2022-07-28T01:56:50.783Z,15.1
2022-07-28T01:58:50.820Z,15.1
2022-07-28T02:00:50.830Z,15.1
2022-07-28T02:02:50.769Z,15.1
2022-07-28T02:04:50.320Z,15.1
2022-07-28T02:06:50.736Z,15.1
2022-07-28T02:08:50.253Z,15.1
2022-07-28T02:10:50.320Z,15.1
2022-07-28T02:12:50.480Z,15.1
2022-07-28T02:14:50.568Z,15.1
2022-07-28T02:16:50.899Z,15.1
2022-07-28T02:18:50.917Z,15.1
2022-07-28T02:20:50.879Z,15.1
2022-07-28T02:22:52.503Z,15.1
2022-07-28T02:24:50.358Z,15.0
2022-07-28T02:26:50.735Z,15.1
2022-07-28T02:28:50.714Z,15.1
2022-07-28T02:30:51.150Z,15.0
2022-07-28T02:32:50.272Z,15.0
2022-07-28T02:34:50.794Z,15.0
2022-07-28T02:36:50.252Z,15.0
2022-07-28T02:38:50.384Z,15.0
2022-07-28T02:40:50.244Z,15.0
2022-07-28T02:42:50.305Z,15.0
2022-07-28T02:44:50.136Z,15.0
2022-07-28T02:46:50.407Z,15.0
2022-07-28T02:48:50.737Z,15.0
2022-07-28T02:50:50.718Z,15.0
2022-07-28T02:52:50.596Z,15.0
2022-07-28T02:54:50.725Z,15.0
2022-07-28T02:56:54.425Z,15.0
2022-07-28T02:58:50.546Z,15.0
2022-07-28T03:00:50.677Z,15.0
2022-07-28T03:02:50.855Z,15.0
2022-07-28T03:04:50.764Z,15.0
2022-07-28T03:06:50.669Z,15.0
2022-07-28T03:08:50.680Z,15.0
2022-07-28T03:10:50.832Z,15.0
2022-07-28T03:12:51.061Z,15.0
2022-07-28T03:14:50.983Z,15.0
2022-07-28T03:16:56.279Z,15.0
2022-07-28T03:18:50.323Z,15.0
2022-07-28T03:20:50.384Z,15.0
2022-07-28T03:22:50.410Z,15.0
2022-07-28T03:24:50.448Z,15.0
2022-07-28T03:26:50.746Z,15.0
2022-07-28T03:28:50.673Z,15.0
2022-07-28T03:30:50.884Z,15.0
2022-07-28T03:32:49.937Z,15.0
2022-07-28T03:34:50.195Z,15.0
2022-07-28T03:36:50.303Z,15.0
2022-07-28T03:38:50.344Z,15.0
2022-07-28T03:40:50.368Z,14.9
2022-07-28T03:42:50.365Z,14.9
2022-07-28T03:44:50.425Z,14.9
2022-07-28T03:46:50.812Z,14.9
2022-07-28T03:48:51.144Z,14.9
2022-07-28T03:50:50.141Z,14.9
2022-07-28T03:52:50.398Z,14.9
2022-07-28T03:54:50.246Z,14.9
2022-07-28T03:56:50.726Z,14.9
2022-07-28T03:58:50.565Z,14.9
2022-07-28T04:00:51.005Z,14.9
2022-07-28T04:02:50.519Z,14.9
2022-07-28T04:04:50.316Z,14.9
2022-07-28T04:06:50.595Z,14.9
2022-07-28T04:08:50.581Z,14.9
2022-07-28T04:10:50.651Z,14.9
2022-07-28T04:12:50.769Z,14.9
2022-07-28T04:14:50.625Z,14.9
2022-07-28T04:16:51.122Z,14.9
2022-07-28T04:18:50.245Z,14.9
2022-07-28T04:20:50.027Z,14.9
2022-07-28T04:22:50.302Z,14.9
2022-07-28T04:24:50.263Z,14.9
2022-07-28T04:26:50.703Z,14.9
2022-07-28T04:28:50.491Z,14.9
2022-07-28T04:30:50.690Z,14.9
2022-07-28T04:32:50.923Z,14.9
2022-07-28T04:34:50.110Z,14.9
2022-07-28T04:36:50.348Z,14.9
2022-07-28T04:38:50.365Z,14.9
2022-07-28T04:40:50.578Z,14.9
2022-07-28T04:42:50.609Z,14.9
2022-07-28T04:44:50.718Z,15.0
2022-07-28T04:46:50.912Z,15.0
2022-07-28T04:48:50.175Z,15.0
2022-07-28T04:50:50.184Z,15.0
2022-07-28T04:52:50.260Z,15.0
2022-07-28T04:54:50.090Z,15.1
2022-07-28T04:56:50.423Z,15.1
2022-07-28T04:58:50.424Z,15.1
2022-07-28T05:00:51.403Z,15.2
2022-07-28T05:02:50.385Z,15.4
2022-07-28T05:04:51.124Z,15.7
2022-07-28T05:06:50.691Z,16.0
2022-07-28T05:08:50.692Z,16.0
2022-07-28T05:10:50.611Z,16.4
2022-07-28T05:12:50.560Z,16.6
2022-07-28T05:14:50.419Z,17.0
2022-07-28T05:16:51.021Z,17.2
2022-07-28T05:18:50.833Z,17.2
2022-07-28T05:20:50.521Z,17.2
2022-07-28T05:22:50.476Z,17.5
2022-07-28T05:24:51.482Z,17.8
2022-07-28T05:26:50.941Z,18.1
2022-07-28T05:28:49.930Z,18.1
2022-07-28T05:30:50.723Z,18.6
2022-07-28T05:32:49.949Z,19.1
2022-07-28T05:34:50.390Z,19.1
2022-07-28T05:36:50.448Z,19.6
2022-07-28T05:38:50.406Z,19.8
2022-07-28T05:40:50.269Z,20.0
2022-07-28T05:42:50.221Z,20.2
2022-07-28T05:44:50.160Z,20.2
2022-07-28T05:46:50.321Z,20.3
2022-07-28T05:48:50.601Z,20.3
2022-07-28T05:50:49.946Z,20.3
2022-07-28T05:52:50.812Z,20.3
2022-07-28T05:54:50.819Z,20.3
2022-07-28T05:56:50.841Z,20.2
2022-07-28T05:58:50.671Z,20.0
2022-07-28T06:00:50.859Z,19.9
2022-07-28T06:02:50.415Z,19.8
2022-07-28T06:04:50.627Z,19.8
2022-07-28T06:06:49.990Z,19.6
2022-07-28T06:08:51.823Z,19.5
2022-07-28T06:10:50.388Z,19.4
2022-07-28T06:12:50.313Z,19.4
2022-07-28T06:14:50.228Z,19.4
2022-07-28T06:16:51.866Z,19.4
2022-07-28T06:18:50.910Z,19.5
2022-07-28T06:20:50.932Z,19.5
2022-07-28T06:22:50.779Z,19.5
2022-07-28T06:24:50.733Z,19.5
2022-07-28T06:26:50.023Z,19.5
2022-07-28T06:28:50.111Z,19.5
2022-07-28T06:30:50.566Z,19.6
2022-07-28T06:32:50.613Z,19.6
2022-07-28T06:34:50.069Z,19.5
2022-07-28T06:36:50.415Z,19.5
2022-07-28T06:38:50.399Z,19.6
2022-07-28T06:40:50.205Z,19.6
2022-07-28T06:42:50.675Z,19.6
2022-07-28T06:45:00.489Z,19.7
2022-07-28T06:46:51.161Z,19.7
2022-07-28T06:48:50.475Z,19.8
2022-07-28T06:50:50.617Z,19.8
2022-07-28T06:52:50.676Z,19.9
2022-07-28T06:54:50.591Z,20.0
2022-07-28T06:56:50.253Z,20.0
2022-07-28T06:58:50.301Z,20.1
2022-07-28T07:00:50.648Z,20.1
2022-07-28T07:02:50.877Z,20.2
2022-07-28T07:04:50.105Z,20.2
2022-07-28T07:06:50.293Z,20.3
2022-07-28T07:08:50.139Z,20.3
2022-07-28T07:10:50.189Z,20.3
2022-07-28T07:12:50.067Z,20.4
2022-07-28T07:14:49.945Z,20.5
2022-07-28T07:16:50.629Z,20.6
2022-07-28T07:18:50.832Z,20.6
2022-07-28T07:20:50.884Z,20.6
2022-07-28T07:22:50.946Z,20.6
2022-07-28T07:24:58.153Z,20.8
2022-07-28T07:26:50.454Z,20.8
2022-07-28T07:28:50.437Z,20.8
2022-07-28T07:30:50.271Z,20.8
2022-07-28T07:32:50.409Z,20.9
2022-07-28T07:34:50.936Z,21.0
2022-07-28T07:36:50.406Z,21.0
2022-07-28T07:38:50.308Z,21.0
2022-07-28T07:40:50.301Z,21.0
2022-07-28T07:42:50.250Z,21.1
2022-07-28T07:44:50.914Z,21.1
2022-07-28T07:46:50.576Z,21.1
2022-07-28T07:48:51.133Z,21.1
2022-07-28T07:50:54.835Z,21.1
2022-07-28T07:52:50.926Z,21.2
2022-07-28T07:54:50.816Z,21.2
2022-07-28T07:56:50.011Z,21.2
2022-07-28T07:58:57.548Z,21.2
2022-07-28T08:00:50.673Z,21.2
2022-07-28T08:02:50.828Z,21.2
2022-07-28T08:04:50.520Z,21.2
2022-07-28T08:06:51.657Z,21.2
2022-07-28T08:08:50.685Z,21.2
2022-07-28T08:10:50.357Z,21.3
2022-07-28T08:12:50.303Z,21.3
2022-07-28T08:14:50.325Z,21.4
2022-07-28T08:16:50.209Z,21.4
2022-07-28T08:18:50.099Z,21.4
2022-07-28T08:20:50.049Z,21.4
2022-07-28T08:22:50.024Z,21.5
2022-07-28T08:24:50.065Z,21.6
2022-07-28T08:26:50.371Z,21.7
2022-07-28T08:28:50.642Z,21.7
2022-07-28T08:30:50.938Z,21.8
2022-07-28T08:32:57.705Z,21.8
2022-07-28T08:34:53.730Z,21.8
2022-07-28T08:36:50.639Z,21.9
2022-07-28T08:38:50.487Z,22.1
2022-07-28T08:40:50.493Z,22.1
2022-07-28T08:42:50.230Z,22.2
2022-07-28T08:44:50.084Z,22.2
2022-07-28T08:46:50.898Z,22.3
2022-07-28T08:48:50.534Z,22.3
2022-07-28T08:50:50.651Z,22.3
2022-07-28T08:52:50.788Z,22.4
2022-07-28T08:54:50.494Z,22.4
2022-07-28T08:56:50.656Z,22.5
2022-07-28T08:58:50.583Z,22.6
2022-07-28T09:00:50.627Z,22.6
2022-07-28T09:02:53.119Z,22.6
2022-07-28T09:04:50.010Z,22.6
2022-07-28T09:06:50.119Z,22.8
2022-07-28T09:08:50.885Z,22.9
2022-07-28T09:10:50.899Z,23.0
2022-07-28T09:12:50.001Z,23.0
2022-07-28T09:14:50.875Z,23.0
2022-07-28T09:16:50.026Z,23.0
2022-07-28T09:18:49.931Z,23.0
2022-07-28T09:20:50.766Z,23.1
2022-07-28T09:22:50.693Z,23.1
2022-07-28T09:24:51.048Z,23.1
2022-07-28T09:26:50.572Z,23.2
2022-07-28T09:28:50.468Z,23.2
2022-07-28T09:30:55.095Z,23.2
2022-07-28T09:32:50.335Z,23.2
2022-07-28T09:34:52.376Z,23.3
2022-07-28T09:36:50.577Z,23.3
2022-07-28T09:38:50.394Z,23.3
2022-07-28T09:40:50.451Z,23.4
2022-07-28T09:42:50.318Z,23.4
2022-07-28T09:45:23.207Z,23.4
2022-07-28T09:46:51.508Z,23.5
2022-07-28T09:48:51.987Z,23.5
2022-07-28T09:50:50.482Z,23.5
2022-07-28T09:52:50.476Z,23.6
2022-07-28T09:54:50.492Z,23.6
2022-07-28T09:56:50.010Z,23.7
2022-07-28T09:58:50.066Z,23.7
2022-07-28T10:00:50.024Z,23.7
2022-07-28T10:02:51.127Z,23.8
2022-07-28T10:04:50.738Z,23.8
2022-07-28T10:06:49.943Z,24.0
2022-07-28T10:08:50.849Z,24.0
2022-07-28T10:10:50.864Z,24.0
2022-07-28T10:12:50.926Z,24.2
2022-07-28T10:14:50.194Z,24.2
2022-07-28T10:16:50.401Z,24.2
2022-07-28T10:18:50.366Z,24.3
2022-07-28T10:20:50.384Z,24.3
2022-07-28T10:22:50.098Z,24.4
2022-07-28T10:24:50.822Z,24.5
2022-07-28T10:26:50.249Z,24.5
2022-07-28T10:28:50.226Z,24.5
2022-07-28T10:30:50.297Z,24.5
2022-07-28T10:32:50.373Z,24.6
2022-07-28T10:34:50.650Z,24.7
2022-07-28T10:36:50.830Z,24.7
2022-07-28T10:38:50.828Z,24.8
2022-07-28T10:40:49.945Z,24.8
2022-07-28T10:42:50.815Z,24.8
2022-07-28T10:44:50.607Z,25.0
2022-07-28T10:46:50.407Z,25.0
2022-07-28T10:48:52.256Z,25.1
2022-07-28T10:50:50.396Z,25.2
2022-07-28T10:52:59.661Z,25.2
2022-07-28T10:54:50.543Z,25.3
2022-07-28T10:56:50.610Z,25.3
2022-07-28T10:58:50.721Z,25.3
2022-07-28T11:01:06.666Z,25.4
2022-07-28T11:02:51.940Z,25.5
2022-07-28T11:04:50.806Z,25.6
2022-07-28T11:06:50.023Z,25.6
2022-07-28T11:08:50.910Z,25.7
2022-07-28T11:10:50.644Z,25.7
2022-07-28T11:12:50.597Z,25.7
2022-07-28T11:14:51.734Z,25.8
2022-07-28T11:16:50.808Z,25.8
2022-07-28T11:18:50.672Z,25.8
2022-07-28T11:20:50.701Z,25.9
2022-07-28T11:22:50.658Z,26.0
2022-07-28T11:24:50.935Z,26.0
2022-07-28T11:26:50.161Z,26.0
2022-07-28T11:28:50.212Z,26.1
2022-07-28T11:30:50.344Z,26.1
2022-07-28T11:32:50.498Z,26.1
2022-07-28T11:34:50.751Z,26.2
2022-07-28T11:36:50.030Z,26.2
2022-07-28T11:38:50.804Z,26.2
2022-07-28T11:40:50.817Z,26.2
2022-07-28T11:42:49.971Z,26.2
2022-07-28T11:44:52.068Z,26.3
2022-07-28T11:46:53.951Z,26.3
2022-07-28T11:48:50.967Z,26.3
2022-07-28T11:50:50.149Z,26.3
2022-07-28T11:52:50.097Z,26.3
2022-07-28T11:54:50.929Z,26.4
2022-07-28T11:56:50.282Z,26.5
2022-07-28T11:58:50.210Z,26.5
2022-07-28T12:00:50.448Z,26.6
2022-07-28T12:02:50.689Z,26.6
2022-07-28T12:04:50.943Z,26.7
2022-07-28T12:06:52.007Z,26.8
2022-07-28T12:08:50.166Z,26.8
2022-07-28T12:10:56.970Z,26.8
2022-07-28T12:12:50.149Z,26.8
2022-07-28T12:14:50.001Z,26.8
2022-07-28T12:16:50.601Z,27.0
2022-07-28T12:18:50.640Z,27.0
2022-07-28T12:20:51.286Z,27.1
2022-07-28T12:22:51.202Z,27.1
2022-07-28T12:24:50.206Z,27.1
2022-07-28T12:26:51.018Z,27.2
2022-07-28T12:28:49.989Z,27.3
2022-07-28T12:30:50.909Z,27.3
2022-07-28T12:32:50.805Z,27.3
2022-07-28T12:34:50.244Z,27.4
2022-07-28T12:36:50.384Z,27.5
2022-07-28T12:38:50.361Z,27.6
2022-07-28T12:40:50.213Z,27.6
2022-07-28T12:42:54.123Z,27.7
2022-07-28T12:44:50.100Z,27.8
2022-07-28T12:46:50.300Z,27.8
2022-07-28T12:48:50.397Z,27.8
2022-07-28T12:50:50.645Z,27.8
2022-07-28T12:52:50.705Z,27.8
2022-07-28T12:54:57.054Z,27.8
2022-07-28T12:56:50.324Z,27.9
2022-07-28T12:58:50.209Z,27.8
2022-07-28T13:00:50.510Z,27.8
2022-07-28T13:02:50.907Z,27.9
2022-07-28T13:04:50.259Z,28.0
2022-07-28T13:06:50.484Z,28.1
2022-07-28T13:08:53.365Z,28.1
2022-07-28T13:10:59.469Z,28.1
2022-07-28T13:12:50.330Z,28.1
2022-07-28T13:14:50.316Z,28.0
2022-07-28T13:16:50.956Z,28.0
2022-07-28T13:18:50.779Z,28.0
2022-07-28T13:20:50.729Z,28.0
2022-07-28T13:22:50.609Z,28.0
2022-07-28T13:24:50.547Z,28.0
2022-07-28T13:26:50.899Z,27.9
2022-07-28T13:28:50.114Z,27.8
2022-07-28T13:30:50.027Z,27.8
2022-07-28T13:32:50.478Z,27.9
2022-07-28T13:34:49.947Z,28.0
2022-07-28T13:36:50.372Z,28.0
2022-07-28T13:38:50.215Z,28.0
2022-07-28T13:40:50.085Z,28.2
2022-07-28T13:42:57.458Z,28.3
2022-07-28T13:44:50.243Z,28.4
2022-07-28T13:46:50.696Z,28.4
2022-07-28T13:49:00.873Z,28.5
2022-07-28T13:50:49.983Z,28.6
2022-07-28T13:52:51.937Z,28.7
2022-07-28T13:54:51.617Z,28.8
2022-07-28T13:56:50.737Z,28.8
2022-07-28T13:58:52.001Z,28.9
2022-07-28T14:00:50.435Z,28.8
2022-07-28T14:02:50.825Z,28.8
2022-07-28T14:04:51.459Z,28.8
2022-07-28T14:06:50.692Z,28.8
2022-07-28T14:08:54.176Z,28.8
2022-07-28T14:10:50.248Z,28.9
2022-07-28T14:12:51.645Z,28.9
2022-07-28T14:14:50.562Z,28.9
2022-07-28T14:16:50.326Z,28.9
2022-07-28T14:18:50.376Z,28.9
2022-07-28T14:20:50.595Z,28.9
2022-07-28T14:22:50.399Z,28.9
2022-07-28T14:24:50.181Z,28.9
2022-07-28T14:26:50.353Z,28.9
2022-07-28T14:28:50.077Z,28.9
2022-07-28T14:30:50.043Z,28.9
2022-07-28T14:32:50.746Z,28.9
2022-07-28T14:34:50.798Z,29.0
2022-07-28T14:36:51.180Z,29.0
2022-07-28T14:38:55.167Z,29.0
2022-07-28T14:40:49.970Z,29.0
2022-07-28T14:42:50.854Z,29.0
2022-07-28T14:44:50.789Z,29.0
2022-07-28T14:46:51.207Z,29.2
2022-07-28T14:48:50.614Z,29.3
2022-07-28T14:50:50.508Z,29.4
2022-07-28T14:52:50.489Z,29.4
2022-07-28T14:54:50.406Z,29.4
2022-07-28T14:56:49.973Z,29.5
2022-07-28T14:58:50.672Z,29.6
2022-07-28T15:00:50.562Z,29.6
2022-07-28T15:02:50.818Z,29.6
2022-07-28T15:04:50.630Z,29.5
2022-07-28T15:06:50.600Z,29.5
2022-07-28T15:08:50.634Z,29.5
2022-07-28T15:10:50.382Z,29.5
2022-07-28T15:12:50.501Z,29.5
2022-07-28T15:14:50.393Z,29.4
2022-07-28T15:16:50.679Z,29.5
2022-07-28T15:18:50.709Z,29.5
2022-07-28T15:20:50.745Z,29.6
2022-07-28T15:22:50.920Z,29.6
2022-07-28T15:24:50.679Z,29.6
2022-07-28T15:26:49.949Z,29.6
2022-07-28T15:28:50.745Z,29.6
2022-07-28T15:30:50.787Z,29.5
2022-07-28T15:32:58.306Z,29.5
2022-07-28T15:34:50.778Z,29.5
2022-07-28T15:36:50.114Z,29.4
2022-07-28T15:38:51.415Z,29.3
2022-07-28T15:40:53.310Z,29.3
2022-07-28T15:42:50.100Z,29.2
2022-07-28T15:44:50.055Z,29.1
2022-07-28T15:46:51.155Z,29.1
2022-07-28T15:48:50.743Z,29.1
2022-07-28T15:50:50.695Z,29.1
2022-07-28T15:52:50.584Z,29.0
2022-07-28T15:54:50.544Z,29.0
2022-07-28T15:56:50.555Z,29.0
2022-07-28T15:58:50.555Z,29.0
2022-07-28T16:00:50.489Z,29.0
2022-07-28T16:02:50.749Z,29.0
2022-07-28T16:04:54.799Z,29.0
2022-07-28T16:06:50.242Z,28.9
2022-07-28T16:08:50.242Z,28.9
2022-07-28T16:10:50.118Z,28.9
2022-07-28T16:12:50.195Z,28.9
2022-07-28T16:14:49.955Z,28.9
2022-07-28T16:16:50.161Z,28.8
2022-07-28T16:18:50.106Z,28.8
2022-07-28T16:20:49.984Z,28.8
2022-07-28T16:22:50.916Z,28.7
2022-07-28T16:24:50.974Z,28.8
2022-07-28T16:26:50.239Z,29.0
2022-07-28T16:28:50.154Z,29.0
2022-07-28T16:30:50.420Z,29.0
2022-07-28T16:32:50.236Z,29.0
2022-07-28T16:34:50.772Z,29.2
2022-07-28T16:36:50.093Z,29.3
2022-07-28T16:38:49.980Z,29.3
2022-07-28T16:40:50.828Z,29.4
2022-07-28T16:42:50.690Z,29.6
2022-07-28T16:44:50.420Z,29.8
2022-07-28T16:46:50.832Z,29.8
2022-07-28T16:48:51.023Z,30.0
2022-07-28T16:50:50.335Z,30.1
2022-07-28T16:52:50.332Z,30.2
2022-07-28T16:54:50.207Z,30.3
2022-07-28T16:56:50.536Z,30.3
2022-07-28T16:58:50.455Z,30.4
2022-07-28T17:00:50.443Z,30.5
2022-07-28T17:02:50.327Z,30.6
2022-07-28T17:04:51.106Z,30.7
2022-07-28T17:06:50.441Z,30.7
2022-07-28T17:08:50.504Z,30.7
2022-07-28T17:10:50.510Z,30.8
2022-07-28T17:12:50.842Z,30.8
2022-07-28T17:14:49.942Z,30.8
2022-07-28T17:16:50.130Z,30.8
2022-07-28T17:18:50.064Z,30.9
2022-07-28T17:20:50.015Z,31.0
2022-07-28T17:22:49.936Z,31.0
2022-07-28T17:24:50.915Z,31.0
2022-07-28T17:27:38.065Z,31.0
2022-07-28T17:28:50.774Z,30.9
2022-07-28T17:30:50.712Z,30.7
2022-07-28T17:32:50.514Z,30.5
2022-07-28T17:34:50.822Z,30.3
2022-07-28T17:36:50.046Z,30.3
2022-07-28T17:38:50.935Z,30.0
2022-07-28T17:40:50.744Z,29.8
2022-07-28T17:42:50.658Z,29.8
2022-07-28T17:44:50.464Z,29.5
2022-07-28T17:46:51.245Z,29.3
2022-07-28T17:48:50.743Z,29.1
2022-07-28T17:50:50.835Z,28.9
2022-07-28T17:52:50.764Z,28.9
2022-07-28T17:54:50.731Z,28.6
2022-07-28T17:56:50.152Z,28.6
2022-07-28T17:58:50.555Z,28.5
2022-07-28T18:00:50.516Z,28.5
2022-07-28T18:02:50.680Z,28.5
2022-07-28T18:04:50.126Z,28.4
2022-07-28T18:06:50.333Z,28.3
2022-07-28T18:08:50.481Z,28.2
2022-07-28T18:10:50.487Z,28.1
2022-07-28T18:12:50.419Z,28.1
2022-07-28T18:14:50.334Z,27.9
2022-07-28T18:16:50.253Z,27.7
2022-07-28T18:18:50.193Z,27.6
2022-07-28T18:20:49.933Z,27.4
2022-07-28T18:22:50.846Z,27.4
2022-07-28T18:24:50.805Z,27.2
2022-07-28T18:26:50.177Z,27.1
2022-07-28T18:28:50.123Z,27.1
2022-07-28T18:30:50.426Z,26.9
2022-07-28T18:32:50.369Z,26.8
2022-07-28T18:34:50.911Z,26.7
2022-07-28T18:36:51.385Z,26.5
2022-07-28T18:38:50.319Z,26.4
2022-07-28T18:40:53.300Z,26.4
2022-07-28T18:42:50.305Z,26.2
2022-07-28T18:44:50.286Z,26.2
2022-07-28T18:46:51.264Z,26.0
2022-07-28T18:48:57.709Z,26.0
2022-07-28T18:50:50.750Z,25.8
2022-07-28T18:52:50.765Z,25.8
2022-07-28T18:54:50.822Z,25.6
2022-07-28T18:56:50.021Z,25.6
2022-07-28T18:58:49.899Z,25.4
2022-07-28T19:00:50.868Z,25.4
2022-07-28T19:02:51.304Z,25.3
2022-07-28T19:04:50.095Z,25.2
2022-07-28T19:06:50.489Z,25.1
2022-07-28T19:08:50.300Z,25.0
2022-07-28T19:10:50.104Z,25.0
2022-07-28T19:12:50.125Z,24.8
2022-07-28T19:14:50.087Z,24.7
2022-07-28T19:16:50.143Z,24.6
2022-07-28T19:18:50.093Z,24.6
2022-07-28T19:20:50.042Z,24.5
2022-07-28T19:22:50.016Z,24.3
2022-07-28T19:24:49.938Z,24.2
2022-07-28T19:26:50.056Z,24.1
2022-07-28T19:28:50.800Z,24.0
2022-07-28T19:30:51.324Z,24.0
2022-07-28T19:32:50.265Z,23.9
2022-07-28T19:34:51.611Z,23.8
2022-07-28T19:36:50.919Z,23.7
2022-07-28T19:38:49.949Z,23.7
2022-07-28T19:40:50.859Z,23.6
2022-07-28T19:42:50.823Z,23.4
2022-07-28T19:44:56.499Z,23.4
2022-07-28T19:46:50.731Z,23.4
2022-07-28T19:48:50.841Z,23.2
2022-07-28T19:50:51.662Z,23.1
2022-07-28T19:52:50.681Z,23.1
2022-07-28T19:54:51.847Z,23.0
2022-07-28T19:56:50.150Z,23.0
2022-07-28T19:58:49.972Z,22.8
2022-07-28T20:00:50.012Z,22.8
2022-07-28T20:02:50.371Z,22.6
2022-07-28T20:04:50.807Z,22.6
2022-07-28T20:06:56.100Z,22.6
2022-07-28T20:08:49.992Z,22.5
2022-07-28T20:10:50.146Z,22.4
2022-07-28T20:12:50.942Z,22.4
2022-07-28T20:14:49.938Z,22.4
2022-07-28T20:16:50.729Z,22.2
2022-07-28T20:18:50.704Z,22.2
2022-07-28T20:20:50.608Z,22.1
2022-07-28T20:22:50.559Z,22.0
2022-07-28T20:24:50.485Z,22.0
2022-07-28T20:26:50.927Z,22.0
2022-07-28T20:28:50.889Z,21.9
2022-07-28T20:30:51.049Z,21.8
2022-07-28T20:32:50.037Z,21.8
2022-07-28T20:34:50.527Z,21.8
2022-07-28T20:36:50.751Z,21.7
2022-07-28T20:38:50.533Z,21.6
2022-07-28T20:40:50.544Z,21.6
2022-07-28T20:42:53.836Z,21.6
2022-07-28T20:44:50.653Z,21.5
2022-07-28T20:46:50.817Z,21.5
2022-07-28T20:48:51.040Z,21.5
2022-07-28T20:50:49.934Z,21.4
2022-07-28T20:52:49.932Z,21.4
2022-07-28T20:54:55.461Z,21.4
2022-07-28T20:56:50.795Z,21.4
2022-07-28T20:58:50.874Z,21.3
2022-07-28T21:00:51.034Z,21.3
2022-07-28T21:02:50.549Z,21.3
2022-07-28T21:04:51.177Z,21.3
2022-07-28T21:07:04.358Z,21.2
2022-07-28T21:08:51.953Z,21.2
2022-07-28T21:10:50.052Z,21.2
2022-07-28T21:12:50.153Z,21.2
2022-07-28T21:14:50.192Z,21.2
2022-07-28T21:16:50.823Z,21.2
2022-07-28T21:18:50.792Z,21.2
2022-07-28T21:20:50.645Z,21.2
2022-07-28T21:22:50.576Z,21.2
2022-07-28T21:24:56.274Z,21.2
2022-07-28T21:26:50.677Z,21.2
2022-07-28T21:28:50.631Z,21.2
2022-07-28T21:30:50.663Z,21.2
2022-07-28T21:32:50.829Z,21.3
2022-07-28T21:34:50.205Z,21.2
2022-07-28T21:36:50.400Z,21.3
2022-07-28T21:38:50.422Z,21.3
2022-07-28T21:40:50.266Z,21.3
2022-07-28T21:42:50.229Z,21.3
2022-07-28T21:44:50.367Z,21.2
2022-07-28T21:46:50.690Z,21.2
2022-07-28T21:48:50.919Z,21.2
2022-07-28T21:50:50.001Z,21.2
2022-07-28T21:52:50.087Z,21.2
2022-07-28T21:54:50.057Z,21.1
2022-07-28T21:56:50.148Z,21.1
2022-07-28T21:58:50.201Z,21.1
2022-07-28T22:00:50.489Z,21.0
2022-07-28T22:02:52.286Z,21.0
2022-07-28T22:04:50.875Z,21.0
2022-07-28T22:06:50.359Z,21.0
2022-07-28T22:08:50.342Z,21.0
2022-07-28T22:10:50.555Z,21.0
2022-07-28T22:12:50.615Z,21.0
2022-07-28T22:14:50.882Z,20.9
2022-07-28T22:16:50.437Z,20.9
2022-07-28T22:18:50.573Z,20.9
2022-07-28T22:20:50.612Z,20.9
2022-07-28T22:22:50.437Z,20.9
2022-07-28T22:24:50.466Z,20.8
2022-07-28T22:26:50.509Z,20.8
2022-07-28T22:28:50.750Z,20.8
2022-07-28T22:30:50.611Z,20.8
2022-07-28T22:32:50.445Z,20.8
2022-07-28T22:34:50.728Z,20.8
2022-07-28T22:36:50.140Z,20.8
2022-07-28T22:38:50.124Z,20.8
2022-07-28T22:40:49.931Z,20.7
2022-07-28T22:42:50.810Z,20.7
2022-07-28T22:44:50.718Z,20.7
2022-07-28T22:46:50.146Z,20.7
2022-07-28T22:48:50.291Z,20.7
2022-07-28T22:50:50.224Z,20.7
2022-07-28T22:52:50.113Z,20.7
2022-07-28T22:54:50.454Z,20.7
2022-07-28T22:56:50.508Z,20.6
2022-07-28T22:58:50.407Z,20.6
2022-07-28T23:00:52.339Z,20.6
2022-07-28T23:02:50.455Z,20.6
2022-07-28T23:04:52.393Z,20.6
2022-07-28T23:06:50.601Z,20.6
2022-07-28T23:08:50.587Z,20.6
2022-07-28T23:10:50.547Z,20.6
2022-07-28T23:12:50.421Z,20.6
2022-07-28T23:14:50.272Z,20.6
2022-07-28T23:16:51.022Z,20.6
2022-07-28T23:18:49.952Z,20.6
2022-07-28T23:20:49.987Z,20.6
2022-07-28T23:22:50.821Z,20.6
2022-07-28T23:24:50.754Z,20.6
2022-07-28T23:26:50.891Z,20.6
2022-07-28T23:28:49.964Z,20.5
2022-07-28T23:30:52.500Z,20.5
2022-07-28T23:32:50.381Z,20.5
2022-07-28T23:34:50.785Z,20.5
2022-07-28T23:36:50.003Z,20.6
2022-07-28T23:38:49.984Z,20.6
2022-07-28T23:40:50.842Z,20.6
2022-07-28T23:42:50.866Z,20.6
2022-07-28T23:44:50.639Z,20.5
2022-07-28T23:46:51.128Z,20.6
2022-07-28T23:48:50.409Z,20.5
2022-07-28T23:50:50.465Z,20.6
2022-07-28T23:52:50.589Z,20.6
2022-07-28T23:54:50.425Z,20.6
2022-07-28T23:56:50.458Z,20.6
2022-07-28T23:58:50.266Z,20.6
